CheckWX is a tool to help pilots better visualize weather data.  It is not intended as a substitute for an official pre-flight weather briefing.

01:46:57 UTC

KSHV METAR
Shreveport Regional Airport
Shreveport, Louisiana, USA
Current

51 mins ago

KSHV 160056Z 22004KT 10SM FEW038 31/24 A2995 RMK AO2 SLP136 T03110244 $
Observed
Jul-16 @ 00:56 UTC
Wind
  • 220° at 4 KTS
Visibility
10 SM
Flight Rules
VFR
Cloud Levels
  • Few at 3,800' AGL
Temperature
31°C / 88°F
Dewpoint
24°C / 75°F
Humidity
66%
Altimeter
29.95" Hg
Pressure
1014.22 hPa
Previous

2 hours ago

KSHV 152356Z 20005KT 10SM FEW036 33/24 A2994 RMK AO2 SLP134 T03280244 10339 20311 55001 $
Observed
Jul-15 @ 23:56 UTC
Wind
  • 200° at 5 KTS
Visibility
10 SM
Flight Rules
VFR
Cloud Levels
  • Few at 3,600' AGL
Temperature
33°C / 91°F
Dewpoint
24°C / 75°F
Humidity
59%
Altimeter
29.94" Hg
Pressure
1013.92 hPa
Previous

3 hours ago

KSHV 152256Z COR 21007KT 10SM FEW036 33/24 A2993 RMK AO2 SLP130 T03330244 $
Observed
Jul-15 @ 22:56 UTC
Wind
  • 210° at 7 KTS
Visibility
10 SM
Flight Rules
VFR
Cloud Levels
  • Few at 3,600' AGL
Temperature
33°C / 91°F
Dewpoint
24°C / 75°F
Humidity
59%
Altimeter
29.93" Hg
Pressure
1013.52 hPa